Time;durP1;ratioP1;P1;durP2;ratioP2;P2;SDS_P1;SDS_P2;PMS_P1;PMS_P2;Temp;Humidity;BMP_temperature;BMP_pressure;BME280_temperature;BME280_humidity;BME280_pressure;Samples;Min_cycle;Max_cycle;Signal;HPM_P1;HPM_P2
2023/08/01 00:02:42;;;;;;;11;6.9;;;;;;;15.01;84.86;;;;;
2023/08/01 00:13:40;;;;;;;11;6.9;;;;;;;15;85.73;;;;;
2023/08/01 00:24:40;;;;;;;11;6.9;;;;;;;15.06;85.05;;;;;
2023/08/01 00:35:40;;;;;;;8.7;6.7;;;;;;;15.12;84.8;;;;;
2023/08/01 00:46:40;;;;;;;8.7;6.7;;;;;;;15.02;84.79;;;;;
2023/08/01 00:57:40;;;;;;;8.4;5.6;;;;;;;14.93;84.59;;;;;
2023/08/01 01:07:40;;;;;;;8.4;5.6;;;;;;;14.86;85.48;;;;;
2023/08/01 01:18:40;;;;;;;8.4;5.6;;;;;;;14.82;85.65;;;;;
2023/08/01 01:29:40;;;;;;;10.2;6.7;;;;;;;14.72;85.09;;;;;
2023/08/01 01:40:40;;;;;;;10.2;6.7;;;;;;;14.55;85.18;;;;;
2023/08/01 01:51:40;;;;;;;10.2;6.7;;;;;;;14.37;85.25;;;;;
2023/08/01 02:01:40;;;;;;;8.2;5;;;;;;;14.27;84.95;;;;;
2023/08/01 02:11:40;;;;;;;8.2;5;;;;;;;14;86.04;;;;;
2023/08/01 02:21:40;;;;;;;8.2;5;;;;;;;13.96;86.27;;;;;
2023/08/01 02:32:41;;;;;;;8.7;4.4;;;;;;;13.95;86.83;;;;;
2023/08/01 02:42:40;;;;;;;8.7;4.4;;;;;;;13.86;87.26;;;;;
2023/08/01 02:52:40;;;;;;;8.7;4.4;;;;;;;13.78;87.09;;;;;
2023/08/01 03:03:41;;;;;;;10.9;4.7;;;;;;;13.69;87.14;;;;;
2023/08/01 03:13:40;;;;;;;10.9;4.7;;;;;;;13.66;87.58;;;;;
2023/08/01 03:24:40;;;;;;;10.9;4.7;;;;;;;13.87;87.94;;;;;
2023/08/01 03:34:41;;;;;;;8.1;4.6;;;;;;;14.18;88.44;;;;;
2023/08/01 03:45:40;;;;;;;8.1;4.6;;;;;;;14.6;87.96;;;;;
2023/08/01 03:56:43;;;;;;;9.9;5.5;;;;;;;15.24;87.48;;;;;
2023/08/01 04:07:40;;;;;;;9.9;5.5;;;;;;;15.94;86;;;;;
2023/08/01 04:18:40;;;;;;;9.9;5.5;;;;;;;16.38;84.12;;;;;
2023/08/01 04:29:40;;;;;;;8.5;6;;;;;;;16.91;82.39;;;;;
2023/08/01 04:40:40;;;;;;;8.5;6;;;;;;;17.41;80.6;;;;;
2023/08/01 04:50:40;;;;;;;8.5;6;;;;;;;17.65;79.22;;;;;
2023/08/01 05:01:40;;;;;;;10.8;4.9;;;;;;;17.82;78.61;;;;;
2023/08/01 05:11:40;;;;;;;10.8;4.9;;;;;;;18.43;78.53;;;;;
2023/08/01 05:21:40;;;;;;;10.8;4.9;;;;;;;19.05;76.93;;;;;
2023/08/01 05:31:40;;;;;;;9.3;3.8;;;;;;;19.77;75.9;;;;;
2023/08/01 05:41:40;;;;;;;9.3;3.8;;;;;;;20.51;70.09;;;;;
2023/08/01 05:51:40;;;;;;;9.3;3.8;;;;;;;21.13;65.42;;;;;
2023/08/01 06:02:40;;;;;;;5.4;2.1;;;;;;;21.5;64.57;;;;;
2023/08/01 06:12:40;;;;;;;5.4;2.1;;;;;;;21.64;64.16;;;;;
2023/08/01 06:22:40;;;;;;;5.4;2.1;;;;;;;22.15;62.53;;;;;
2023/08/01 06:32:40;;;;;;;6.2;2;;;;;;;22.28;63.08;;;;;
2023/08/01 06:43:40;;;;;;;6.2;2;;;;;;;22.38;62.76;;;;;
2023/08/01 06:53:41;;;;;;;6.2;2;;;;;;;22.54;64.26;;;;;
2023/08/01 07:03:40;;;;;;;6.8;2.6;;;;;;;22.88;61.73;;;;;
2023/08/01 07:13:40;;;;;;;6.8;2.6;;;;;;;22.47;63.53;;;;;
2023/08/01 07:24:40;;;;;;;6.8;2.6;;;;;;;22.84;64.2;;;;;
2023/08/01 07:35:40;;;;;;;4.1;2.2;;;;;;;23.01;63.9;;;;;
2023/08/01 07:46:40;;;;;;;4.1;2.2;;;;;;;23.14;62.33;;;;;
2023/08/01 07:57:41;;;;;;;5.4;2.6;;;;;;;23.69;61.81;;;;;
2023/08/01 08:07:40;;;;;;;5.4;2.6;;;;;;;23.69;61.73;;;;;
2023/08/01 08:17:40;;;;;;;5.4;2.6;;;;;;;24.08;61.66;;;;;
2023/08/01 08:27:41;;;;;;;4.7;2.2;;;;;;;24.63;59.85;;;;;
2023/08/01 08:38:40;;;;;;;4.7;2.2;;;;;;;24.67;59.93;;;;;
2023/08/01 08:49:40;;;;;;;4.7;2.2;;;;;;;24.42;60.68;;;;;
2023/08/01 09:00:40;;;;;;;4.5;2.3;;;;;;;24.25;61.84;;;;;
2023/08/01 09:10:40;;;;;;;4.5;2.3;;;;;;;24.36;62.69;;;;;
2023/08/01 09:20:40;;;;;;;4.5;2.3;;;;;;;24.17;64.91;;;;;
2023/08/01 09:30:40;;;;;;;6;2.7;;;;;;;24.41;63.1;;;;;
2023/08/01 09:41:40;;;;;;;6;2.7;;;;;;;24.38;63.04;;;;;
2023/08/01 09:52:40;;;;;;;6;2.7;;;;;;;24.73;63.28;;;;;
2023/08/01 10:02:40;;;;;;;6.1;2.6;;;;;;;24.6;62.75;;;;;
2023/08/01 10:12:40;;;;;;;6.1;2.6;;;;;;;24.02;65.23;;;;;
2023/08/01 10:22:40;;;;;;;6.1;2.6;;;;;;;23.5;67.39;;;;;
2023/08/01 10:33:40;;;;;;;10.2;5.3;;;;;;;23.05;68.27;;;;;
2023/08/01 10:43:41;;;;;;;10.2;5.3;;;;;;;22.63;73.33;;;;;
2023/08/01 10:53:40;;;;;;;10.2;5.3;;;;;;;22;76.66;;;;;
2023/08/01 11:04:40;;;;;;;6.5;3.3;;;;;;;21.89;78.42;;;;;
2023/08/01 11:14:40;;;;;;;6.5;3.3;;;;;;;21.62;80.15;;;;;
2023/08/01 11:24:40;;;;;;;6.5;3.3;;;;;;;21.41;77.69;;;;;
2023/08/01 11:34:41;;;;;;;7.5;4;;;;;;;21.14;80.64;;;;;
2023/08/01 11:45:40;;;;;;;7.5;4;;;;;;;21.08;80.03;;;;;
2023/08/01 11:55:41;;;;;;;7.5;4;;;;;;;20.98;79.69;;;;;
2023/08/01 12:06:40;;;;;;;6.1;3.1;;;;;;;20.78;79.81;;;;;
2023/08/01 12:16:41;;;;;;;6.1;3.1;;;;;;;20.31;80.91;;;;;
2023/08/01 12:26:41;;;;;;;6.3;2.8;;;;;;;20.27;80.81;;;;;
2023/08/01 12:37:41;;;;;;;5.3;3.6;;;;;;;20.16;81.64;;;;;
2023/08/01 12:48:41;;;;;;;5.3;3.6;;;;;;;20.03;82.83;;;;;
2023/08/01 12:58:41;;;;;;;5.3;3.6;;;;;;;20.1;82.03;;;;;
2023/08/01 13:09:40;;;;;;;4.3;2.3;;;;;;;19.94;82.07;;;;;
2023/08/01 13:19:40;;;;;;;4.3;2.3;;;;;;;19.49;82.69;;;;;
2023/08/01 13:29:41;;;;;;;4.3;2.3;;;;;;;19.7;82.1;;;;;
2023/08/01 13:40:40;;;;;;;4.3;2.2;;;;;;;19.48;82.98;;;;;
2023/08/01 13:50:41;;;;;;;4.3;2.2;;;;;;;19.17;83.5;;;;;
2023/08/01 14:01:40;;;;;;;4.3;2.2;;;;;;;19.14;84.94;;;;;
2023/08/01 14:11:40;;;;;;;4.3;1.9;;;;;;;19.02;85.16;;;;;
2023/08/01 14:21:41;;;;;;;4.3;1.9;;;;;;;18.99;86.07;;;;;
2023/08/01 14:31:41;;;;;;;4.3;1.9;;;;;;;19.14;85.68;;;;;
2023/08/01 14:41:41;;;;;;;4.2;2.2;;;;;;;18.95;85.97;;;;;
2023/08/01 14:52:41;;;;;;;4.2;2.2;;;;;;;18.76;86.19;;;;;
2023/08/01 15:02:41;;;;;;;4.2;2.2;;;;;;;18.75;86.82;;;;;
2023/08/01 15:12:41;;;;;;;5;2.2;;;;;;;18.76;86.92;;;;;
2023/08/01 15:22:41;;;;;;;5;2.2;;;;;;;18.58;86.8;;;;;
2023/08/01 15:33:41;;;;;;;5;2.2;;;;;;;18.42;87.32;;;;;
2023/08/01 15:43:41;;;;;;;2.9;1.5;;;;;;;18.46;87.71;;;;;
2023/08/01 15:53:41;;;;;;;2.9;1.5;;;;;;;18.47;87.28;;;;;
2023/08/01 16:03:41;;;;;;;2.9;1.5;;;;;;;18.49;86.22;;;;;
2023/08/01 16:14:41;;;;;;;4.9;2.6;;;;;;;18.42;85.56;;;;;
2023/08/01 16:25:41;;;;;;;4.9;2.6;;;;;;;18.34;85.64;;;;;
2023/08/01 16:35:41;;;;;;;4.9;2.6;;;;;;;18.43;84.83;;;;;
2023/08/01 16:45:41;;;;;;;3.3;1.5;;;;;;;18.36;85.16;;;;;
2023/08/01 16:56:41;;;;;;;3.3;1.5;;;;;;;18.35;85.68;;;;;
2023/08/01 17:07:41;;;;;;;4.1;1.7;;;;;;;18.31;86.14;;;;;
2023/08/01 17:18:41;;;;;;;4.1;1.7;;;;;;;18.42;85.44;;;;;
2023/08/01 17:29:41;;;;;;;4.1;1.7;;;;;;;18.22;86.11;;;;;
2023/08/01 17:40:41;;;;;;;5.1;2.2;;;;;;;17.94;87.04;;;;;
2023/08/01 17:50:41;;;;;;;5.1;2.2;;;;;;;17.95;86.16;;;;;
2023/08/01 18:01:41;;;;;;;5.1;2.2;;;;;;;17.82;85.8;;;;;
2023/08/01 18:12:41;;;;;;;5.4;2.1;;;;;;;17.72;85.63;;;;;
2023/08/01 18:23:41;;;;;;;5.4;2.1;;;;;;;17.45;86.15;;;;;
2023/08/01 18:34:41;;;;;;;5.4;2.1;;;;;;;17.44;86.13;;;;;
2023/08/01 18:45:41;;;;;;;4.3;1.6;;;;;;;17.13;87.38;;;;;
2023/08/01 18:56:41;;;;;;;4.3;1.6;;;;;;;17.06;87.31;;;;;
2023/08/01 19:06:41;;;;;;;4.6;2.4;;;;;;;17.02;87.24;;;;;
2023/08/01 19:17:41;;;;;;;4.6;2.4;;;;;;;16.98;87.53;;;;;
2023/08/01 19:28:41;;;;;;;4.6;2.4;;;;;;;16.73;88.23;;;;;
2023/08/01 19:39:41;;;;;;;5.2;2.2;;;;;;;16.82;87.52;;;;;
2023/08/01 19:50:41;;;;;;;5.2;2.2;;;;;;;16.82;87.6;;;;;
2023/08/01 20:01:41;;;;;;;5.2;2.2;;;;;;;16.93;87.34;;;;;
2023/08/01 20:11:41;;;;;;;4.3;2;;;;;;;16.88;87.25;;;;;
2023/08/01 20:22:41;;;;;;;4.3;2;;;;;;;16.86;87.48;;;;;
2023/08/01 20:32:41;;;;;;;4.3;2;;;;;;;16.89;87.31;;;;;
2023/08/01 20:42:41;;;;;;;4.5;1.9;;;;;;;16.95;87.1;;;;;
2023/08/01 20:52:41;;;;;;;4.5;1.9;;;;;;;16.95;87.12;;;;;
2023/08/01 21:03:41;;;;;;;4.5;1.9;;;;;;;16.8;87.81;;;;;
2023/08/01 21:13:45;;;;;;;5.4;2.6;;;;;;;16.88;87.12;;;;;
2023/08/01 21:24:41;;;;;;;5.4;2.6;;;;;;;16.82;87.82;;;;;
2023/08/01 21:35:41;;;;;;;5.4;2.6;;;;;;;16.66;88.29;;;;;
2023/08/01 21:46:41;;;;;;;4.9;2.3;;;;;;;16.42;89.35;;;;;
2023/08/01 21:56:41;;;;;;;4.9;2.3;;;;;;;16.55;88.58;;;;;
2023/08/01 22:07:41;;;;;;;5;1.8;;;;;;;16.4;88.94;;;;;
2023/08/01 22:18:41;;;;;;;5;1.8;;;;;;;16.33;88.85;;;;;
2023/08/01 22:28:41;;;;;;;5;1.8;;;;;;;16.38;88.38;;;;;
2023/08/01 22:39:41;;;;;;;3.4;2;;;;;;;16.41;88.24;;;;;
2023/08/01 22:49:41;;;;;;;3.4;2;;;;;;;16.39;88.5;;;;;
2023/08/01 23:00:41;;;;;;;3.4;2;;;;;;;16.39;88.3;;;;;
2023/08/01 23:10:41;;;;;;;4.7;1.8;;;;;;;16.38;88;;;;;
2023/08/01 23:21:41;;;;;;;4.7;1.8;;;;;;;16.37;88.07;;;;;
2023/08/01 23:31:41;;;;;;;4.7;1.8;;;;;;;16.2;88.53;;;;;
2023/08/01 23:41:41;;;;;;;4.1;1.8;;;;;;;16.15;88.16;;;;;
2023/08/01 23:52:41;;;;;;;4.1;1.8;;;;;;;16.16;88.43;;;;;
